Time;durP1;ratioP1;P1;durP2;ratioP2;P2;SDS_P1;SDS_P2;PMS_P1;PMS_P2;Temp;Humidity;BMP_temperature;BMP_pressure;BME280_temperature;BME280_humidity;BME280_pressure;Samples;Min_cycle;Max_cycle;Signal;HPM_P1;HPM_P2
2023/09/01 00:00:44;;;;;;;7.13;5.50;;;;;;;;;;5111627;28;20291;-72
2023/09/01 00:03:11;;;;;;;4.53;4.20;;;;;;;;;;5097840;28;20597;-72
2023/09/01 00:05:38;;;;;;;5.00;4.50;;;;;;;;;;5111268;28;20261;-71
2023/09/01 00:08:06;;;;;;;5.40;4.80;;;;;;;;;;5096038;28;20197;-72
2023/09/01 00:10:35;;;;;;;3.97;3.67;;;;;;;;;;5091105;28;20232;-72
2023/09/01 00:13:02;;;;;;;4.93;4.53;;;;;;;;;;5093628;28;20223;-72
2023/09/01 00:15:31;;;;;;;4.63;4.23;;;;;;;;;;5101848;28;20200;-72
2023/09/01 00:17:58;;;;;;;5.43;4.80;;;;;;;;;;5093890;28;21055;-72
2023/09/01 00:20:25;;;;;;;4.67;4.07;;;;;;;;;;5100935;28;20200;-72
2023/09/01 00:22:52;;;;;;;4.83;4.13;;;;;;;;;;5104408;28;20607;-72
2023/09/01 00:25:19;;;;;;;3.70;3.40;;;;;;;;;;5091094;28;20200;-73
2023/09/01 00:27:46;;;;;;;3.80;3.50;;;;;;;;;;5095117;28;20204;-73
2023/09/01 00:30:13;;;;;;;4.57;3.67;;;;;;;;;;5102144;28;20254;-73
2023/09/01 00:32:41;;;;;;;3.80;3.50;;;;;;;;;;5106254;28;20203;-73
2023/09/01 00:35:08;;;;;;;3.70;3.37;;;;;;;;;;5101892;28;20196;-73
2023/09/01 00:37:35;;;;;;;3.90;3.60;;;;;;;;;;5103912;28;20208;-73
2023/09/01 00:40:03;;;;;;;4.10;2.93;;;;;;;;;;5090562;28;20227;-73
2023/09/01 00:42:30;;;;;;;3.53;3.23;;;;;;;;;;5090243;28;20207;-74
2023/09/01 00:44:57;;;;;;;3.57;3.13;;;;;;;;;;5090951;28;20261;-74
2023/09/01 00:47:23;;;;;;;3.87;3.57;;;;;;;;;;5090482;28;20203;-74
2023/09/01 00:49:52;;;;;;;3.93;3.37;;;;;;;;;;5101302;28;20242;-74
2023/09/01 00:52:18;;;;;;;4.80;3.60;;;;;;;;;;5106649;28;20196;-74
2023/09/01 00:54:45;;;;;;;5.17;3.27;;;;;;;;;;5101969;28;20199;-74
2023/09/01 00:57:12;;;;;;;3.40;3.10;;;;;;;;;;5096774;28;20205;-74
2023/09/01 00:59:39;;;;;;;5.13;3.30;;;;;;;;;;5111065;28;20237;-74
2023/09/01 01:02:06;;;;;;;4.97;3.40;;;;;;;;;;5114560;28;20210;-73
2023/09/01 01:04:33;;;;;;;3.33;3.03;;;;;;;;;;5103555;28;20204;-73
2023/09/01 01:07:16;;;;;;;5.63;3.67;;;;;;;;;;5108288;28;20253;-73
2023/09/01 01:09:50;;;;;;;3.67;3.37;;;;;;;;;;5094663;28;20651;-73
2023/09/01 01:12:23;;;;;;;2.97;2.77;;;;;;;;;;5094140;28;20257;-73
2023/09/01 01:14:54;;;;;;;3.00;2.70;;;;;;;;;;5096885;28;20591;-73
2023/09/01 01:17:21;;;;;;;3.17;2.87;;;;;;;;;;5104642;28;20226;-73
2023/09/01 01:19:50;;;;;;;3.17;2.97;;;;;;;;;;5107680;28;20289;-73
2023/09/01 01:22:21;;;;;;;4.20;2.97;;;;;;;;;;5104164;28;20199;-73
2023/09/01 01:24:50;;;;;;;3.30;3.00;;;;;;;;;;5097057;28;20197;-73
2023/09/01 01:27:18;;;;;;;3.93;2.63;;;;;;;;;;5094780;28;20222;-73
2023/09/01 01:29:47;;;;;;;3.80;2.87;;;;;;;;;;5113541;28;20227;-73
2023/09/01 01:32:14;;;;;;;5.20;2.90;;;;;;;;;;5101482;28;20204;-73
2023/09/01 01:34:44;;;;;;;4.13;2.73;;;;;;;;;;5107746;28;20204;-73
2023/09/01 01:37:15;;;;;;;5.17;3.10;;;;;;;;;;5107625;28;20298;-73
2023/09/01 01:39:43;;;;;;;3.13;2.83;;;;;;;;;;5101893;28;20219;-73
2023/09/01 01:42:15;;;;;;;3.13;2.70;;;;;;;;;;5112997;28;20260;-73
2023/09/01 01:44:44;;;;;;;3.63;3.10;;;;;;;;;;5093559;28;20204;-73
2023/09/01 01:47:12;;;;;;;3.53;2.87;;;;;;;;;;5096578;28;20227;-73
2023/09/01 01:49:39;;;;;;;2.93;2.63;;;;;;;;;;5113871;28;20191;-73
2023/09/01 01:52:05;;;;;;;4.50;2.73;;;;;;;;;;5097435;28;20646;-73
2023/09/01 01:54:32;;;;;;;6.43;2.90;;;;;;;;;;5103649;28;20203;-73
2023/09/01 01:56:59;;;;;;;3.03;2.60;;;;;;;;;;5100260;28;20200;-73
2023/09/01 01:59:28;;;;;;;3.13;2.87;;;;;;;;;;5104071;28;20228;-73
2023/09/01 02:01:55;;;;;;;4.13;3.23;;;;;;;;;;5093237;28;20670;-73
2023/09/01 02:04:21;;;;;;;4.03;3.00;;;;;;;;;;5093342;28;20609;-73
2023/09/01 02:06:48;;;;;;;3.37;2.43;;;;;;;;;;5107040;28;20207;-73
2023/09/01 02:09:15;;;;;;;4.20;3.30;;;;;;;;;;5093136;28;20581;-73
2023/09/01 02:11:42;;;;;;;2.97;2.67;;;;;;;;;;5096496;28;20192;-73
2023/09/01 02:14:09;;;;;;;2.63;2.43;;;;;;;;;;5102108;28;20590;-73
2023/09/01 02:16:37;;;;;;;5.00;2.93;;;;;;;;;;5111307;28;20191;-73
2023/09/01 02:19:08;;;;;;;3.00;2.80;;;;;;;;;;5101319;28;20255;-73
2023/09/01 02:21:35;;;;;;;3.43;3.13;;;;;;;;;;5105872;28;20284;-73
2023/09/01 02:24:02;;;;;;;3.43;2.90;;;;;;;;;;5105602;28;20620;-73
2023/09/01 02:26:29;;;;;;;3.77;2.53;;;;;;;;;;5093682;28;20206;-73
2023/09/01 02:28:56;;;;;;;7.07;2.70;;;;;;;;;;5093538;28;20208;-73
2023/09/01 02:31:24;;;;;;;4.03;3.07;;;;;;;;;;5098626;28;20242;-73
2023/09/01 02:33:52;;;;;;;3.10;2.80;;;;;;;;;;5113404;28;20635;-73
2023/09/01 02:36:25;;;;;;;3.10;2.80;;;;;;;;;;5092909;28;20200;-73
2023/09/01 02:38:52;;;;;;;3.10;2.83;;;;;;;;;;5106835;28;20203;-73
2023/09/01 02:41:20;;;;;;;4.77;2.80;;;;;;;;;;5092951;28;20584;-73
2023/09/01 02:43:47;;;;;;;5.63;2.90;;;;;;;;;;5106395;28;20195;-73
2023/09/01 02:46:14;;;;;;;4.97;3.00;;;;;;;;;;5092412;28;20613;-73
2023/09/01 02:48:41;;;;;;;3.40;2.97;;;;;;;;;;5092796;28;20204;-74
2023/09/01 02:51:09;;;;;;;3.67;3.23;;;;;;;;;;5092713;28;20265;-73
2023/09/01 02:53:37;;;;;;;3.17;2.87;;;;;;;;;;5107920;28;20628;-73
2023/09/01 02:56:04;;;;;;;2.97;2.67;;;;;;;;;;5112614;28;20203;-73
2023/09/01 02:58:32;;;;;;;5.03;2.97;;;;;;;;;;5112453;28;20200;-73
2023/09/01 03:00:59;;;;;;;3.87;2.77;;;;;;;;;;5112401;28;20227;-73
2023/09/01 03:03:26;;;;;;;4.67;2.80;;;;;;;;;;5112932;28;20200;-73
2023/09/01 03:05:53;;;;;;;3.57;3.03;;;;;;;;;;5112194;28;20291;-73
2023/09/01 03:08:21;;;;;;;4.03;3.20;;;;;;;;;;5112350;28;20231;-73
2023/09/01 03:10:48;;;;;;;4.70;3.17;;;;;;;;;;5112525;28;20227;-73
2023/09/01 03:13:15;;;;;;;2.97;2.73;;;;;;;;;;5093066;28;20205;-74
2023/09/01 03:15:42;;;;;;;6.10;3.03;;;;;;;;;;5091844;28;20637;-74
2023/09/01 03:18:10;;;;;;;4.43;3.17;;;;;;;;;;5105664;28;20625;-74
2023/09/01 03:20:37;;;;;;;3.77;3.17;;;;;;;;;;5092188;28;20599;-74
2023/09/01 03:23:04;;;;;;;3.87;3.07;;;;;;;;;;5098802;28;20211;-74
2023/09/01 03:25:32;;;;;;;3.90;3.50;;;;;;;;;;5098130;28;20745;-74
2023/09/01 03:27:59;;;;;;;3.93;3.00;;;;;;;;;;5094589;28;20223;-74
2023/09/01 03:30:26;;;;;;;4.37;3.03;;;;;;;;;;5102714;28;20207;-74
2023/09/01 03:32:53;;;;;;;5.60;3.00;;;;;;;;;;5107109;28;20614;-74
2023/09/01 03:35:20;;;;;;;5.80;3.10;;;;;;;;;;5091799;28;20776;-74
2023/09/01 03:37:46;;;;;;;3.37;3.00;;;;;;;;;;5091595;28;20243;-74
2023/09/01 03:40:14;;;;;;;4.73;3.40;;;;;;;;;;5094972;28;20660;-74
2023/09/01 03:42:42;;;;;;;3.50;3.20;;;;;;;;;;5099161;28;20204;-74
2023/09/01 03:45:09;;;;;;;2.77;2.47;;;;;;;;;;5109970;28;20203;-74
2023/09/01 03:47:36;;;;;;;3.27;2.90;;;;;;;;;;5091442;28;20211;-74
2023/09/01 03:50:03;;;;;;;3.57;3.17;;;;;;;;;;5107377;28;20199;-74
2023/09/01 03:52:32;;;;;;;3.20;2.90;;;;;;;;;;5102735;28;20200;-74
2023/09/01 03:54:59;;;;;;;3.20;2.90;;;;;;;;;;5103632;28;20291;-75
2023/09/01 03:57:26;;;;;;;3.50;2.73;;;;;;;;;;5096778;28;20225;-74
2023/09/01 03:59:54;;;;;;;3.20;2.70;;;;;;;;;;5098694;28;20277;-75
2023/09/01 04:02:21;;;;;;;5.53;3.23;;;;;;;;;;5090519;28;20211;-75
2023/09/01 04:04:47;;;;;;;4.53;3.50;;;;;;;;;;5091676;28;20200;-75
2023/09/01 04:07:14;;;;;;;4.33;3.93;;;;;;;;;;5090841;28;20200;-74
2023/09/01 04:09:41;;;;;;;2.87;2.67;;;;;;;;;;5091062;28;20237;-75
2023/09/01 04:12:08;;;;;;;6.03;2.97;;;;;;;;;;5106239;28;20204;-74
2023/09/01 04:14:35;;;;;;;3.40;3.10;;;;;;;;;;5091084;28;20211;-75
2023/09/01 04:17:04;;;;;;;3.57;2.77;;;;;;;;;;5106463;28;20581;-75
2023/09/01 04:19:31;;;;;;;3.43;3.13;;;;;;;;;;5111034;28;20276;-75
2023/09/01 04:21:57;;;;;;;5.67;3.03;;;;;;;;;;5111610;28;20218;-75
2023/09/01 04:24:24;;;;;;;4.53;3.60;;;;;;;;;;5111200;28;20192;-75
2023/09/01 04:26:51;;;;;;;4.53;2.93;;;;;;;;;;5103297;28;20204;-75
2023/09/01 04:29:18;;;;;;;3.97;3.30;;;;;;;;;;5090911;28;20208;-81
2023/09/01 04:31:45;;;;;;;3.40;3.10;;;;;;;;;;5090827;28;20283;-81
2023/09/01 04:34:14;;;;;;;5.87;3.03;;;;;;;;;;5090511;28;20203;-81
2023/09/01 04:36:40;;;;;;;4.80;3.10;;;;;;;;;;5090403;28;20196;-81
2023/09/01 04:39:09;;;;;;;3.60;3.30;;;;;;;;;;5090675;28;20257;-80
2023/09/01 04:41:36;;;;;;;4.87;3.37;;;;;;;;;;5103910;28;20284;-80
2023/09/01 04:44:03;;;;;;;5.20;3.60;;;;;;;;;;5103194;28;20199;-80
2023/09/01 04:46:30;;;;;;;5.23;4.40;;;;;;;;;;5097342;28;20586;-80
2023/09/01 04:48:57;;;;;;;4.80;3.50;;;;;;;;;;5110860;28;20199;-80
2023/09/01 04:51:25;;;;;;;3.60;3.30;;;;;;;;;;5091353;28;20202;-80
2023/09/01 04:53:52;;;;;;;3.47;3.17;;;;;;;;;;5103495;28;20272;-80
2023/09/01 04:56:18;;;;;;;4.40;3.30;;;;;;;;;;5090712;28;20204;-80
2023/09/01 04:58:45;;;;;;;4.07;3.70;;;;;;;;;;5103840;28;20206;-80
2023/09/01 05:01:12;;;;;;;3.57;3.27;;;;;;;;;;5090468;28;20235;-80
2023/09/01 05:03:39;;;;;;;5.77;3.33;;;;;;;;;;5090431;28;20206;-79
2023/09/01 05:06:07;;;;;;;3.97;3.00;;;;;;;;;;5097728;28;20211;-80
2023/09/01 05:08:35;;;;;;;3.83;3.43;;;;;;;;;;5096776;28;20210;-79
2023/09/01 05:11:02;;;;;;;3.80;3.07;;;;;;;;;;5091025;28;20294;-80
2023/09/01 05:13:28;;;;;;;3.13;2.93;;;;;;;;;;5090481;28;20200;-80
2023/09/01 05:15:55;;;;;;;5.60;3.73;;;;;;;;;;5090153;28;20211;-80
2023/09/01 05:18:22;;;;;;;4.60;3.13;;;;;;;;;;5104004;28;20211;-80
2023/09/01 05:20:49;;;;;;;3.40;2.97;;;;;;;;;;5098400;28;20235;-80
2023/09/01 05:23:16;;;;;;;4.37;3.33;;;;;;;;;;5095665;28;20249;-80
2023/09/01 05:25:44;;;;;;;3.60;3.20;;;;;;;;;;5098689;28;20677;-80
2023/09/01 05:28:10;;;;;;;4.80;3.70;;;;;;;;;;5110202;28;20704;-80
2023/09/01 05:30:38;;;;;;;5.03;3.47;;;;;;;;;;5097684;28;20204;-79
2023/09/01 05:33:05;;;;;;;3.77;3.20;;;;;;;;;;5103820;28;20208;-79
2023/09/01 05:35:33;;;;;;;3.73;3.43;;;;;;;;;;5103200;28;20252;-80
2023/09/01 05:38:00;;;;;;;5.03;3.20;;;;;;;;;;5090877;28;20212;-80
2023/09/01 05:40:27;;;;;;;3.77;3.30;;;;;;;;;;5103828;28;20693;-79
2023/09/01 05:42:55;;;;;;;3.77;3.33;;;;;;;;;;5103389;28;20204;-80
2023/09/01 05:45:22;;;;;;;3.90;3.53;;;;;;;;;;5091025;28;20199;-79
2023/09/01 05:47:48;;;;;;;3.30;3.00;;;;;;;;;;5112188;28;20188;-79
2023/09/01 05:50:15;;;;;;;3.97;3.47;;;;;;;;;;5100035;28;20208;-79
2023/09/01 05:52:42;;;;;;;3.63;3.27;;;;;;;;;;5114000;28;20204;-79
2023/09/01 05:55:09;;;;;;;3.43;2.83;;;;;;;;;;5112393;28;20200;-80
2023/09/01 05:57:36;;;;;;;4.63;3.10;;;;;;;;;;5101592;28;20670;-80
2023/09/01 06:00:05;;;;;;;4.63;3.47;;;;;;;;;;5112316;28;20223;-80
2023/09/01 06:02:32;;;;;;;5.70;2.70;;;;;;;;;;5102803;28;20199;-79
2023/09/01 06:04:59;;;;;;;3.17;2.87;;;;;;;;;;5097930;28;20204;-79
2023/09/01 06:07:25;;;;;;;3.17;2.87;;;;;;;;;;5093122;28;20212;-79
2023/09/01 06:09:52;;;;;;;3.43;2.97;;;;;;;;;;5093224;28;20235;-79
2023/09/01 06:12:19;;;;;;;4.83;3.00;;;;;;;;;;5093462;28;20221;-79
2023/09/01 06:14:46;;;;;;;6.77;3.23;;;;;;;;;;5096647;28;20626;-79
2023/09/01 06:17:14;;;;;;;5.73;3.50;;;;;;;;;;5103459;28;20228;-79
2023/09/01 06:19:41;;;;;;;3.90;3.13;;;;;;;;;;5096918;28;20195;-79
2023/09/01 06:22:08;;;;;;;4.63;3.23;;;;;;;;;;5102420;28;20654;-79
2023/09/01 06:24:34;;;;;;;3.40;3.10;;;;;;;;;;5097744;28;20282;-79
2023/09/01 06:27:01;;;;;;;3.23;2.93;;;;;;;;;;5102431;28;20697;-79
2023/09/01 06:29:28;;;;;;;3.93;2.90;;;;;;;;;;5106451;28;20202;-79
2023/09/01 06:31:54;;;;;;;3.23;2.93;;;;;;;;;;5103025;28;20204;-79
2023/09/01 06:34:23;;;;;;;2.90;2.70;;;;;;;;;;5099247;28;20644;-79
2023/09/01 06:36:49;;;;;;;3.13;2.93;;;;;;;;;;5103318;28;20200;-79
2023/09/01 06:39:18;;;;;;;3.27;2.97;;;;;;;;;;5093197;28;20561;-79
2023/09/01 06:41:46;;;;;;;3.87;2.80;;;;;;;;;;5092636;28;20285;-79
2023/09/01 06:44:13;;;;;;;3.93;2.97;;;;;;;;;;5092801;28;20265;-79
2023/09/01 06:46:40;;;;;;;2.80;2.60;;;;;;;;;;5092658;28;20200;-79
2023/09/01 06:49:06;;;;;;;3.23;3.03;;;;;;;;;;5111303;28;20199;-79
2023/09/01 06:51:35;;;;;;;4.13;2.93;;;;;;;;;;5113021;28;20203;-79
2023/09/01 06:54:02;;;;;;;3.33;2.70;;;;;;;;;;5112867;28;20199;-80
2023/09/01 06:56:29;;;;;;;2.60;2.40;;;;;;;;;;5112601;28;20249;-79
2023/09/01 06:58:56;;;;;;;2.90;2.70;;;;;;;;;;5093096;28;20196;-80
2023/09/01 07:01:22;;;;;;;2.80;2.60;;;;;;;;;;5091715;28;20231;-80
2023/09/01 07:03:50;;;;;;;3.10;2.87;;;;;;;;;;5098590;28;20199;-79
2023/09/01 07:06:17;;;;;;;4.33;3.03;;;;;;;;;;5112323;28;20203;-80
2023/09/01 07:08:45;;;;;;;3.03;2.80;;;;;;;;;;5092290;28;20207;-79
2023/09/01 07:11:14;;;;;;;2.93;2.70;;;;;;;;;;5091761;28;20228;-80
2023/09/01 07:13:42;;;;;;;2.67;2.47;;;;;;;;;;5099496;28;20277;-80
2023/09/01 07:16:08;;;;;;;3.10;2.20;;;;;;;;;;5097760;28;20201;-79
2023/09/01 07:18:35;;;;;;;2.10;2.00;;;;;;;;;;5092509;28;20574;-80
2023/09/01 07:21:02;;;;;;;2.77;2.37;;;;;;;;;;5105777;28;20231;-79
2023/09/01 07:23:29;;;;;;;2.20;2.00;;;;;;;;;;5104224;28;20273;-80
2023/09/01 07:25:59;;;;;;;3.77;2.23;;;;;;;;;;5092834;28;20204;-80
2023/09/01 07:28:26;;;;;;;2.97;2.20;;;;;;;;;;5092311;28;20680;-79
2023/09/01 07:30:53;;;;;;;4.50;2.00;;;;;;;;;;5093066;28;20571;-79
2023/09/01 07:33:20;;;;;;;2.23;1.97;;;;;;;;;;5111732;28;20200;-80
2023/09/01 07:35:47;;;;;;;2.80;2.37;;;;;;;;;;5098628;28;20204;-79
2023/09/01 07:38:14;;;;;;;4.43;2.27;;;;;;;;;;5111911;28;20227;-79
2023/09/01 07:40:41;;;;;;;3.23;2.10;;;;;;;;;;5095916;28;20245;-78
2023/09/01 07:43:09;;;;;;;2.43;2.20;;;;;;;;;;5091740;28;20200;-81
2023/09/01 07:45:36;;;;;;;2.20;2.10;;;;;;;;;;5091550;28;20674;-79
2023/09/01 07:48:04;;;;;;;1.97;1.87;;;;;;;;;;5100799;28;20622;-79
2023/09/01 07:50:32;;;;;;;2.13;1.93;;;;;;;;;;5094932;28;20216;-79
2023/09/01 07:52:59;;;;;;;4.93;2.40;;;;;;;;;;5091395;28;20197;-79
2023/09/01 07:55:26;;;;;;;3.87;2.00;;;;;;;;;;5091415;28;20394;-79
2023/09/01 07:57:53;;;;;;;1.90;1.80;;;;;;;;;;5091081;28;20204;-79
2023/09/01 08:00:22;;;;;;;2.17;1.80;;;;;;;;;;5094946;28;20677;-79
2023/09/01 08:02:49;;;;;;;2.17;2.00;;;;;;;;;;5100835;28;20202;-78
2023/09/01 08:05:16;;;;;;;3.10;2.00;;;;;;;;;;5091698;28;20207;-78
2023/09/01 08:07:42;;;;;;;1.57;1.47;;;;;;;;;;5101771;28;20596;-78
2023/09/01 08:10:10;;;;;;;4.17;2.73;;;;;;;;;;5106401;28;20654;-77
2023/09/01 08:12:38;;;;;;;1.70;1.60;;;;;;;;;;5091429;28;20228;-78
2023/09/01 08:15:05;;;;;;;1.90;1.80;;;;;;;;;;5104656;28;20204;-77
2023/09/01 08:17:35;;;;;;;5.23;1.60;;;;;;;;;;5090505;28;20682;-77
2023/09/01 08:20:03;;;;;;;2.10;2.00;;;;;;;;;;5096801;28;20195;-77
2023/09/01 08:22:32;;;;;;;3.30;1.80;;;;;;;;;;5098269;28;20227;-76
2023/09/01 08:24:59;;;;;;;1.57;1.47;;;;;;;;;;5103775;28;20203;-77
2023/09/01 08:27:26;;;;;;;1.90;1.80;;;;;;;;;;5091386;28;20200;-77
2023/09/01 08:29:52;;;;;;;2.90;1.60;;;;;;;;;;5111068;28;20670;-76
2023/09/01 08:32:19;;;;;;;2.03;1.83;;;;;;;;;;5097753;28;20200;-77
2023/09/01 08:34:47;;;;;;;3.33;2.03;;;;;;;;;;5104268;28;20689;-77
2023/09/01 08:37:15;;;;;;;1.93;1.83;;;;;;;;;;5090468;28;20219;-76
2023/09/01 08:39:42;;;;;;;2.10;1.90;;;;;;;;;;5097852;28;20319;-76
2023/09/01 08:42:10;;;;;;;2.00;1.90;;;;;;;;;;5097140;28;20227;-76
2023/09/01 08:44:38;;;;;;;1.80;1.70;;;;;;;;;;5103703;28;20208;-76
2023/09/01 08:47:05;;;;;;;2.22;1.75;;;;;;;;;;5090393;28;20204;-76
2023/09/01 08:49:33;;;;;;;2.05;1.70;;;;;;;;;;5098457;28;20211;-76
2023/09/01 08:52:03;;;;;;;2.57;2.07;;;;;;;;;;5109427;28;20693;-76
2023/09/01 08:54:33;;;;;;;2.03;1.93;;;;;;;;;;5099244;28;20203;-76
2023/09/01 08:57:00;;;;;;;2.17;1.90;;;;;;;;;;5097370;28;20592;-76
2023/09/01 08:59:28;;;;;;;2.05;1.95;;;;;;;;;;5101790;28;20204;-76
2023/09/01 09:01:54;;;;;;;2.50;2.10;;;;;;;;;;5103600;28;20318;-76
2023/09/01 09:04:21;;;;;;;1.70;1.60;;;;;;;;;;5100763;28;20335;-76
2023/09/01 09:06:48;;;;;;;1.80;1.70;;;;;;;;;;5097031;28;20674;-76
2023/09/01 09:09:18;;;;;;;3.28;1.98;;;;;;;;;;5110534;28;20199;-76
2023/09/01 09:11:56;;;;;;;2.08;1.98;;;;;;;;;;5092933;28;20193;-76
2023/09/01 09:14:22;;;;;;;2.10;1.90;;;;;;;;;;5090532;28;20200;-76
2023/09/01 09:16:53;;;;;;;2.20;2.10;;;;;;;;;;5103726;28;20668;-76
2023/09/01 09:19:20;;;;;;;1.88;1.77;;;;;;;;;;5103603;28;20588;-75
2023/09/01 09:21:46;;;;;;;1.98;1.88;;;;;;;;;;5092413;28;20220;-75
2023/09/01 09:24:14;;;;;;;2.13;2.03;;;;;;;;;;5107648;28;20200;-75
2023/09/01 09:26:42;;;;;;;1.83;1.73;;;;;;;;;;5094483;28;20228;-75
2023/09/01 09:29:11;;;;;;;2.03;1.85;;;;;;;;;;5094243;28;20208;-76
2023/09/01 09:31:39;;;;;;;1.80;1.70;;;;;;;;;;5094002;28;20287;-76
2023/09/01 09:34:14;;;;;;;2.05;1.95;;;;;;;;;;5107601;28;20306;-76
2023/09/01 09:36:41;;;;;;;1.90;1.77;;;;;;;;;;5103489;28;20206;-76
2023/09/01 09:39:21;;;;;;;2.55;2.20;;;;;;;;;;5097816;28;20205;-75
2023/09/01 09:41:49;;;;;;;2.28;1.70;;;;;;;;;;5093517;28;20319;-76
2023/09/01 09:44:22;;;;;;;3.28;1.88;;;;;;;;;;5098940;28;20586;-76
2023/09/01 09:46:49;;;;;;;2.00;1.90;;;;;;;;;;5101050;28;20228;-76
2023/09/01 09:49:16;;;;;;;1.83;1.73;;;;;;;;;;5093701;28;20239;-76
2023/09/01 09:51:43;;;;;;;1.83;1.73;;;;;;;;;;5093602;28;20208;-76
2023/09/01 09:54:12;;;;;;;1.92;1.83;;;;;;;;;;5101144;28;20204;-75
2023/09/01 09:56:40;;;;;;;2.03;1.92;;;;;;;;;;5099367;28;20204;-76
2023/09/01 09:59:09;;;;;;;1.60;1.50;;;;;;;;;;5101119;28;20211;-75
2023/09/01 10:01:39;;;;;;;2.25;1.60;;;;;;;;;;5100292;28;20881;-76
2023/09/01 10:04:07;;;;;;;1.80;1.70;;;;;;;;;;5113845;28;20629;-76
2023/09/01 10:06:35;;;;;;;2.45;1.65;;;;;;;;;;5099503;28;20208;-75
2023/09/01 10:09:04;;;;;;;1.98;1.88;;;;;;;;;;5113593;28;20199;-75
2023/09/01 10:11:32;;;;;;;2.95;1.60;;;;;;;;;;5100052;28;20228;-76
2023/09/01 10:13:59;;;;;;;2.67;1.67;;;;;;;;;;5104434;28;20199;-75
2023/09/01 10:16:27;;;;;;;2.75;1.67;;;;;;;;;;5109822;28;20214;-75
2023/09/01 10:18:54;;;;;;;1.80;1.55;;;;;;;;;;5103671;28;20200;-75
2023/09/01 10:21:21;;;;;;;1.63;1.52;;;;;;;;;;5095730;28;20202;-75
2023/09/01 10:23:48;;;;;;;1.65;1.55;;;;;;;;;;5113957;28;20199;-75
2023/09/01 10:26:17;;;;;;;2.42;1.50;;;;;;;;;;5096380;28;20196;-75
2023/09/01 10:28:54;;;;;;;2.55;1.50;;;;;;;;;;5103691;28;20207;-75
2023/09/01 10:31:23;;;;;;;1.48;1.40;;;;;;;;;;5093835;28;20242;-75
2023/09/01 10:34:03;;;;;;;1.80;1.58;;;;;;;;;;5092643;28;20654;-75
2023/09/01 10:36:33;;;;;;;1.95;1.60;;;;;;;;;;5100885;28;20207;-75
2023/09/01 10:39:21;;;;;;;1.60;1.50;;;;;;;;;;5097551;28;20689;-75
2023/09/01 10:41:52;;;;;;;1.65;1.55;;;;;;;;;;5092928;28;20226;-75
2023/09/01 10:44:21;;;;;;;2.28;1.70;;;;;;;;;;5094221;28;20204;-75
2023/09/01 10:46:49;;;;;;;1.70;1.60;;;;;;;;;;5105600;28;20621;-75
2023/09/01 10:49:17;;;;;;;1.95;1.85;;;;;;;;;;5092857;28;20675;-75
2023/09/01 10:51:46;;;;;;;1.50;1.40;;;;;;;;;;5106451;28;20268;-75
2023/09/01 10:54:40;;;;;;;1.75;1.65;;;;;;;;;;5092986;28;20548;-75
2023/09/01 10:57:12;;;;;;;1.40;1.30;;;;;;;;;;5087518;28;20235;-75
2023/09/01 10:59:38;;;;;;;1.63;1.52;;;;;;;;;;5112504;28;20208;-75
2023/09/01 11:02:18;;;;;;;1.80;1.70;;;;;;;;;;5093884;28;20227;-75
2023/09/01 11:04:46;;;;;;;3.72;1.70;;;;;;;;;;5092930;28;20224;-75
2023/09/01 11:07:14;;;;;;;1.55;1.45;;;;;;;;;;5104730;28;20225;-75
2023/09/01 11:09:51;;;;;;;1.80;1.70;;;;;;;;;;5092530;28;20236;-75
2023/09/01 11:12:18;;;;;;;3.17;1.20;;;;;;;;;;5102138;28;20294;-75
2023/09/01 11:14:56;;;;;;;2.15;1.48;;;;;;;;;;5099204;28;20211;-75
2023/09/01 11:17:43;;;;;;;2.58;1.70;;;;;;;;;;5100932;28;20228;-75
2023/09/01 11:20:14;;;;;;;1.73;1.63;;;;;;;;;;5099559;28;20256;-75
2023/09/01 11:22:42;;;;;;;1.80;1.70;;;;;;;;;;5098143;28;20224;-75
2023/09/01 11:25:12;;;;;;;1.33;1.33;;;;;;;;;;5104008;28;21017;-75
2023/09/01 11:27:43;;;;;;;1.63;1.52;;;;;;;;;;5093120;28;20293;-75
2023/09/01 11:30:10;;;;;;;1.85;1.73;;;;;;;;;;5112193;28;20207;-75
2023/09/01 11:32:37;;;;;;;1.70;1.60;;;;;;;;;;5112073;28;20210;-75
2023/09/01 11:35:05;;;;;;;1.73;1.63;;;;;;;;;;5102983;28;20204;-75
2023/09/01 11:37:38;;;;;;;1.67;1.58;;;;;;;;;;5094303;28;20284;-75
2023/09/01 11:40:07;;;;;;;2.00;1.90;;;;;;;;;;5111872;28;20210;-75
2023/09/01 11:42:34;;;;;;;1.58;1.48;;;;;;;;;;5094426;28;20367;-75
2023/09/01 11:45:04;;;;;;;1.88;1.77;;;;;;;;;;5091220;28;20200;-75
2023/09/01 11:47:31;;;;;;;2.20;2.00;;;;;;;;;;5091654;28;20616;-75
2023/09/01 11:49:58;;;;;;;2.15;2.05;;;;;;;;;;5103104;28;20203;-75
2023/09/01 11:52:25;;;;;;;2.30;2.10;;;;;;;;;;5111115;28;20211;-75
2023/09/01 11:54:53;;;;;;;2.13;2.03;;;;;;;;;;5111461;28;20215;-75
2023/09/01 11:57:21;;;;;;;1.80;1.70;;;;;;;;;;5092752;28;20205;-75
2023/09/01 11:59:49;;;;;;;1.98;1.88;;;;;;;;;;5104127;28;20207;-75
2023/09/01 12:02:17;;;;;;;1.92;1.83;;;;;;;;;;5092170;28;20235;-75
2023/09/01 12:04:47;;;;;;;2.08;1.98;;;;;;;;;;5104833;28;20207;-75
2023/09/01 12:07:27;;;;;;;2.15;2.05;;;;;;;;;;5091108;28;20662;-75
2023/09/01 12:09:57;;;;;;;2.05;1.95;;;;;;;;;;5104996;28;20230;-75
2023/09/01 12:12:24;;;;;;;2.10;2.00;;;;;;;;;;5100356;28;20208;-75
2023/09/01 12:15:04;;;;;;;1.98;1.88;;;;;;;;;;5108369;28;20214;-75
2023/09/01 12:17:30;;;;;;;2.15;2.05;;;;;;;;;;5090886;28;20199;-75
2023/09/01 12:19:57;;;;;;;3.75;2.00;;;;;;;;;;5104597;28;20212;-75
2023/09/01 12:22:24;;;;;;;2.03;1.92;;;;;;;;;;5090528;28;20652;-75
2023/09/01 12:24:52;;;;;;;2.00;1.90;;;;;;;;;;5091612;28;20205;-75
2023/09/01 12:27:20;;;;;;;1.90;1.80;;;;;;;;;;5103555;28;20207;-75
2023/09/01 12:29:47;;;;;;;2.03;1.85;;;;;;;;;;5092071;28;20203;-75
2023/09/01 12:32:14;;;;;;;2.05;1.95;;;;;;;;;;5103930;28;20207;-75
2023/09/01 12:34:41;;;;;;;2.70;2.30;;;;;;;;;;5105016;28;20292;-75
2023/09/01 12:37:08;;;;;;;1.77;1.67;;;;;;;;;;5090690;28;20644;-75
2023/09/01 12:39:36;;;;;;;2.00;1.90;;;;;;;;;;5096816;28;20673;-75
2023/09/01 12:42:03;;;;;;;2.15;2.05;;;;;;;;;;5097404;28;20207;-75
2023/09/01 12:44:34;;;;;;;2.13;2.03;;;;;;;;;;5090517;28;20269;-75
2023/09/01 12:47:01;;;;;;;2.03;1.92;;;;;;;;;;5090890;28;20279;-75
2023/09/01 12:49:29;;;;;;;2.25;2.15;;;;;;;;;;5098328;28;20200;-75
2023/09/01 12:51:56;;;;;;;2.25;2.15;;;;;;;;;;5111145;28;20223;-75
2023/09/01 12:54:22;;;;;;;2.25;2.10;;;;;;;;;;5111306;28;20222;-75
2023/09/01 12:56:49;;;;;;;2.30;2.20;;;;;;;;;;5110872;28;20623;-75
2023/09/01 12:59:16;;;;;;;2.60;2.50;;;;;;;;;;5094952;28;20207;-75
2023/09/01 13:01:44;;;;;;;2.40;2.20;;;;;;;;;;5094535;28;20257;-75
2023/09/01 13:04:11;;;;;;;2.70;2.50;;;;;;;;;;5103493;28;20234;-75
2023/09/01 13:06:37;;;;;;;2.08;1.98;;;;;;;;;;5098704;28;20200;-75
2023/09/01 13:09:04;;;;;;;2.30;2.10;;;;;;;;;;5104063;28;20256;-75
2023/09/01 13:11:33;;;;;;;2.13;2.03;;;;;;;;;;5101031;28;20199;-75
2023/09/01 13:14:00;;;;;;;2.70;2.50;;;;;;;;;;5114633;28;20196;-75
2023/09/01 13:16:33;;;;;;;2.13;2.03;;;;;;;;;;5111380;28;20201;-76
2023/09/01 13:19:01;;;;;;;2.22;2.03;;;;;;;;;;5105468;28;20574;-74
2023/09/01 13:21:28;;;;;;;2.42;2.30;;;;;;;;;;5096483;28;20207;-75
2023/09/01 13:23:54;;;;;;;2.42;2.30;;;;;;;;;;5105659;28;20717;-76
2023/09/01 13:26:21;;;;;;;2.40;2.20;;;;;;;;;;5109877;28;20201;-75
2023/09/01 13:28:49;;;;;;;2.17;2.05;;;;;;;;;;5105566;28;20200;-75
2023/09/01 13:31:17;;;;;;;2.50;2.30;;;;;;;;;;5114094;28;20238;-76
2023/09/01 13:33:43;;;;;;;2.20;2.10;;;;;;;;;;5114366;28;20249;-75
2023/09/01 13:36:12;;;;;;;2.38;2.28;;;;;;;;;;5096236;28;20200;-76
2023/09/01 13:38:39;;;;;;;2.72;2.53;;;;;;;;;;5094297;28;20200;-75
2023/09/01 13:41:07;;;;;;;2.10;2.00;;;;;;;;;;5093779;28;20235;-75
2023/09/01 13:43:35;;;;;;;3.72;2.53;;;;;;;;;;5105629;28;20605;-75
2023/09/01 13:46:18;;;;;;;2.13;2.03;;;;;;;;;;5100716;28;20252;-75
2023/09/01 13:48:45;;;;;;;5.60;2.22;;;;;;;;;;5100535;28;20204;-75
2023/09/01 13:51:16;;;;;;;2.35;2.22;;;;;;;;;;5106159;28;20210;-75
2023/09/01 13:53:43;;;;;;;2.20;2.00;;;;;;;;;;5093255;28;20250;-75
2023/09/01 13:56:09;;;;;;;4.50;2.58;;;;;;;;;;5093564;28;20712;-75
2023/09/01 13:58:38;;;;;;;2.15;2.05;;;;;;;;;;5109317;28;20210;-75
2023/09/01 14:01:04;;;;;;;2.08;1.92;;;;;;;;;;5104314;28;20658;-75
2023/09/01 14:03:32;;;;;;;2.10;1.90;;;;;;;;;;5107111;28;20235;-75
2023/09/01 14:06:00;;;;;;;2.25;2.15;;;;;;;;;;5093520;28;20431;-75
2023/09/01 14:08:28;;;;;;;3.17;2.97;;;;;;;;;;5091768;28;20682;-75
2023/09/01 14:10:56;;;;;;;2.72;2.53;;;;;;;;;;5102496;28;20685;-75
2023/09/01 14:13:23;;;;;;;1.92;1.83;;;;;;;;;;5112912;28;20282;-75
2023/09/01 14:15:50;;;;;;;2.33;2.15;;;;;;;;;;5103132;28;20204;-75
2023/09/01 14:18:17;;;;;;;2.60;2.40;;;;;;;;;;5107817;28;20693;-75
2023/09/01 14:20:45;;;;;;;2.60;2.10;;;;;;;;;;5104701;28;20204;-75
2023/09/01 14:23:12;;;;;;;1.85;1.75;;;;;;;;;;5094336;28;20216;-75
2023/09/01 14:25:40;;;;;;;2.58;1.88;;;;;;;;;;5104921;28;20200;-75
2023/09/01 14:28:06;;;;;;;2.03;1.75;;;;;;;;;;5093044;28;20210;-75
2023/09/01 14:30:33;;;;;;;2.17;2.05;;;;;;;;;;5105197;28;20203;-75
2023/09/01 14:33:00;;;;;;;3.28;2.50;;;;;;;;;;5107671;28;20188;-75
2023/09/01 14:35:27;;;;;;;2.50;2.30;;;;;;;;;;5092911;28;20695;-75
2023/09/01 14:37:53;;;;;;;2.00;1.90;;;;;;;;;;5098762;28;20204;-75
2023/09/01 14:40:20;;;;;;;2.03;1.90;;;;;;;;;;5100406;28;20218;-75
2023/09/01 14:42:48;;;;;;;3.28;2.33;;;;;;;;;;5106293;28;20224;-75
2023/09/01 14:45:15;;;;;;;1.83;1.73;;;;;;;;;;5105953;28;20195;-75
2023/09/01 14:47:43;;;;;;;2.28;2.17;;;;;;;;;;5092569;28;20261;-75